Главная страница
METAR-TAF:

METAR-TAF

Аэропорты :

Wellsville Municipal Airport (Tarantine Field)

Wellsville, Нью-Йорк, США

широта: 42-06-27N, долгота: 077-59-04W, высота над уровнем моря: 647 м

Текущие метеонаблюдения

Эта сводка был подготовлена 21 минут назад, в 09:56 UTC
Ветер 23 Узел от северо-западный с порывами до 28 Узел
Температура -6°C
Влажность 79%
Давление 1012 hPa
Видимость: 16.1 км
Сплошная облачность на высоте 1800 фута

METAR: KELZ 230956Z AUTO 31023G28KT 10SM OVC018 M06/M09 A2989 RMK AO2 PK WND 29031/0933 SLP149 T10611089 $

Время: 06:17 (10:17 UTC)


TAF: отсутствует

Метеонаблюдения и прогнозы для более 4000 аэропортов (сводки METAR и TAF).

Имеющиеся станции представлены на карте желтыми и красными точками.

Чтобы увидеть название станции, наведите на нее мышь.

Затем щелкните, чтобы увидеть метеонаблюдения и метеопрогнозы.

Управление картой: чтобы увеличить масштаб, щелкните зеленые кнопки с черным крестиком; чтобы уменьшить масштаб, щелкните зеленую кнопку с тире; для просмотра соседних карт щелкайте зеленые стрелки.


METAR-TAF: